sensor_id;sensor_type;location;lat;lon;timestamp;temperature;humidity
47168;DHT22;32931;47.778;17.806;2023-06-22T00:02:14;26.00;88.40
47168;DHT22;32931;47.778;17.806;2023-06-22T00:04:40;25.90;88.30
47168;DHT22;32931;47.778;17.806;2023-06-22T00:07:06;25.90;88.30
47168;DHT22;32931;47.778;17.806;2023-06-22T00:09:33;25.80;88.50
47168;DHT22;32931;47.778;17.806;2023-06-22T00:11:59;25.80;88.90
47168;DHT22;32931;47.778;17.806;2023-06-22T00:14:25;25.70;89.10
47168;DHT22;32931;47.778;17.806;2023-06-22T00:16:51;25.70;89.30
47168;DHT22;32931;47.778;17.806;2023-06-22T00:19:23;25.60;89.40
47168;DHT22;32931;47.778;17.806;2023-06-22T00:21:52;25.60;89.60
47168;DHT22;32931;47.778;17.806;2023-06-22T00:24:21;25.50;90.00
47168;DHT22;32931;47.778;17.806;2023-06-22T00:26:50;25.50;90.20
47168;DHT22;32931;47.778;17.806;2023-06-22T00:29:17;25.50;90.10
47168;DHT22;32931;47.778;17.806;2023-06-22T00:31:44;25.50;90.20
47168;DHT22;32931;47.778;17.806;2023-06-22T00:34:10;25.40;90.20
47168;DHT22;32931;47.778;17.806;2023-06-22T00:36:36;25.30;90.30
47168;DHT22;32931;47.778;17.806;2023-06-22T00:39:02;25.20;90.50
47168;DHT22;32931;47.778;17.806;2023-06-22T00:41:29;25.20;90.70
47168;DHT22;32931;47.778;17.806;2023-06-22T00:43:55;25.10;90.90
47168;DHT22;32931;47.778;17.806;2023-06-22T00:46:23;25.10;91.00
47168;DHT22;32931;47.778;17.806;2023-06-22T00:48:50;25.00;91.10
47168;DHT22;32931;47.778;17.806;2023-06-22T00:51:17;24.90;91.10
47168;DHT22;32931;47.778;17.806;2023-06-22T00:53:43;24.80;91.10
47168;DHT22;32931;47.778;17.806;2023-06-22T00:56:10;24.70;91.20
47168;DHT22;32931;47.778;17.806;2023-06-22T00:58:38;24.50;91.30
47168;DHT22;32931;47.778;17.806;2023-06-22T01:01:07;24.50;91.60
47168;DHT22;32931;47.778;17.806;2023-06-22T01:03:34;24.40;91.70
47168;DHT22;32931;47.778;17.806;2023-06-22T01:06:08;24.40;91.90
47168;DHT22;32931;47.778;17.806;2023-06-22T01:08:51;24.30;92.20
47168;DHT22;32931;47.778;17.806;2023-06-22T01:11:28;24.30;92.30
47168;DHT22;32931;47.778;17.806;2023-06-22T01:13:59;24.30;92.40
47168;DHT22;32931;47.778;17.806;2023-06-22T01:16:31;24.30;92.30
47168;DHT22;32931;47.778;17.806;2023-06-22T01:21:41;24.20;92.40
47168;DHT22;32931;47.778;17.806;2023-06-22T01:24:30;24.20;92.40
47168;DHT22;32931;47.778;17.806;2023-06-22T01:29:55;24.00;92.80
47168;DHT22;32931;47.778;17.806;2023-06-22T01:32:36;24.00;92.80
47168;DHT22;32931;47.778;17.806;2023-06-22T01:35:05;23.90;93.00
47168;DHT22;32931;47.778;17.806;2023-06-22T01:37:34;24.00;93.00
47168;DHT22;32931;47.778;17.806;2023-06-22T01:40:01;24.00;93.10
47168;DHT22;32931;47.778;17.806;2023-06-22T01:42:27;24.00;93.20
47168;DHT22;32931;47.778;17.806;2023-06-22T01:44:54;23.90;93.30
47168;DHT22;32931;47.778;17.806;2023-06-22T01:47:24;23.90;93.30
47168;DHT22;32931;47.778;17.806;2023-06-22T01:49:51;23.90;93.40
47168;DHT22;32931;47.778;17.806;2023-06-22T01:52:18;23.90;93.50
47168;DHT22;32931;47.778;17.806;2023-06-22T01:54:47;23.90;93.70
47168;DHT22;32931;47.778;17.806;2023-06-22T01:57:14;23.80;93.70
47168;DHT22;32931;47.778;17.806;2023-06-22T01:59:53;23.80;93.90
47168;DHT22;32931;47.778;17.806;2023-06-22T02:02:24;23.80;94.10
47168;DHT22;32931;47.778;17.806;2023-06-22T02:05:09;23.80;94.00
47168;DHT22;32931;47.778;17.806;2023-06-22T02:08:17;23.80;94.60
47168;DHT22;32931;47.778;17.806;2023-06-22T02:10:46;23.80;94.50
47168;DHT22;32931;47.778;17.806;2023-06-22T02:13:13;23.70;94.20
47168;DHT22;32931;47.778;17.806;2023-06-22T02:15:40;23.60;94.20
47168;DHT22;32931;47.778;17.806;2023-06-22T02:18:07;23.50;94.40
47168;DHT22;32931;47.778;17.806;2023-06-22T02:20:37;23.50;94.50
47168;DHT22;32931;47.778;17.806;2023-06-22T02:23:03;23.50;94.90
47168;DHT22;32931;47.778;17.806;2023-06-22T02:25:29;23.50;95.10
47168;DHT22;32931;47.778;17.806;2023-06-22T02:27:55;23.50;95.20
47168;DHT22;32931;47.778;17.806;2023-06-22T02:30:21;23.50;95.30
47168;DHT22;32931;47.778;17.806;2023-06-22T02:32:47;23.40;95.40
47168;DHT22;32931;47.778;17.806;2023-06-22T02:35:14;23.40;95.50
47168;DHT22;32931;47.778;17.806;2023-06-22T02:37:40;23.40;95.70
47168;DHT22;32931;47.778;17.806;2023-06-22T02:40:10;23.40;95.80
47168;DHT22;32931;47.778;17.806;2023-06-22T02:42:39;23.40;96.00
47168;DHT22;32931;47.778;17.806;2023-06-22T02:45:06;23.40;96.00
47168;DHT22;32931;47.778;17.806;2023-06-22T02:47:32;23.40;96.10
47168;DHT22;32931;47.778;17.806;2023-06-22T02:49:58;23.40;96.30
47168;DHT22;32931;47.778;17.806;2023-06-22T02:52:25;23.50;96.30
47168;DHT22;32931;47.778;17.806;2023-06-22T02:54:51;23.40;96.30
47168;DHT22;32931;47.778;17.806;2023-06-22T02:57:17;23.40;96.30
47168;DHT22;32931;47.778;17.806;2023-06-22T02:59:44;23.40;96.30
47168;DHT22;32931;47.778;17.806;2023-06-22T03:02:10;23.40;96.10
47168;DHT22;32931;47.778;17.806;2023-06-22T03:04:37;23.30;96.30
47168;DHT22;32931;47.778;17.806;2023-06-22T03:07:03;23.20;96.40
47168;DHT22;32931;47.778;17.806;2023-06-22T03:09:30;23.20;96.70
47168;DHT22;32931;47.778;17.806;2023-06-22T03:11:56;23.20;96.90
47168;DHT22;32931;47.778;17.806;2023-06-22T03:14:22;23.30;97.10
47168;DHT22;32931;47.778;17.806;2023-06-22T03:16:49;23.40;97.20
47168;DHT22;32931;47.778;17.806;2023-06-22T03:19:15;23.30;97.20
47168;DHT22;32931;47.778;17.806;2023-06-22T03:21:41;23.40;97.20
47168;DHT22;32931;47.778;17.806;2023-06-22T03:24:07;23.50;97.20
47168;DHT22;32931;47.778;17.806;2023-06-22T03:26:34;23.50;97.00
47168;DHT22;32931;47.778;17.806;2023-06-22T03:29:00;23.50;96.90
47168;DHT22;32931;47.778;17.806;2023-06-22T03:31:27;23.50;96.90
47168;DHT22;32931;47.778;17.806;2023-06-22T03:33:53;23.40;97.00
47168;DHT22;32931;47.778;17.806;2023-06-22T03:36:20;23.40;97.20
47168;DHT22;32931;47.778;17.806;2023-06-22T03:38:47;23.40;97.40
47168;DHT22;32931;47.778;17.806;2023-06-22T03:41:13;23.50;97.50
47168;DHT22;32931;47.778;17.806;2023-06-22T03:43:39;23.50;97.60
47168;DHT22;32931;47.778;17.806;2023-06-22T03:46:06;23.60;97.70
47168;DHT22;32931;47.778;17.806;2023-06-22T03:48:32;23.60;97.60
47168;DHT22;32931;47.778;17.806;2023-06-22T03:51:01;23.60;97.50
47168;DHT22;32931;47.778;17.806;2023-06-22T03:53:29;23.60;97.60
47168;DHT22;32931;47.778;17.806;2023-06-22T03:55:55;23.60;97.60
47168;DHT22;32931;47.778;17.806;2023-06-22T03:58:22;23.50;97.90
47168;DHT22;32931;47.778;17.806;2023-06-22T04:00:50;23.50;98.00
47168;DHT22;32931;47.778;17.806;2023-06-22T04:03:17;23.50;98.40
47168;DHT22;32931;47.778;17.806;2023-06-22T04:05:46;23.50;98.30
47168;DHT22;32931;47.778;17.806;2023-06-22T04:08:13;23.50;98.40
47168;DHT22;32931;47.778;17.806;2023-06-22T04:10:40;23.50;98.60
47168;DHT22;32931;47.778;17.806;2023-06-22T04:13:06;23.50;98.80
47168;DHT22;32931;47.778;17.806;2023-06-22T04:15:32;23.50;99.00
47168;DHT22;32931;47.778;17.806;2023-06-22T04:17:59;23.50;99.10
47168;DHT22;32931;47.778;17.806;2023-06-22T04:20:25;23.50;99.20
47168;DHT22;32931;47.778;17.806;2023-06-22T04:22:54;23.40;99.40
47168;DHT22;32931;47.778;17.806;2023-06-22T04:25:21;23.50;99.50
47168;DHT22;32931;47.778;17.806;2023-06-22T04:27:48;23.40;99.60
47168;DHT22;32931;47.778;17.806;2023-06-22T04:30:14;23.40;99.70
47168;DHT22;32931;47.778;17.806;2023-06-22T04:32:42;23.40;99.90
47168;DHT22;32931;47.778;17.806;2023-06-22T04:35:10;23.50;99.90
47168;DHT22;32931;47.778;17.806;2023-06-22T04:37:37;23.50;99.90
47168;DHT22;32931;47.778;17.806;2023-06-22T04:40:04;23.50;99.90
47168;DHT22;32931;47.778;17.806;2023-06-22T04:42:34;23.50;99.90
47168;DHT22;32931;47.778;17.806;2023-06-22T04:45:02;23.50;99.90
47168;DHT22;32931;47.778;17.806;2023-06-22T04:47:28;23.50;99.90
47168;DHT22;32931;47.778;17.806;2023-06-22T04:49:54;23.60;99.90
47168;DHT22;32931;47.778;17.806;2023-06-22T04:52:21;23.70;99.90
47168;DHT22;32931;47.778;17.806;2023-06-22T04:54:47;23.70;99.90
47168;DHT22;32931;47.778;17.806;2023-06-22T04:57:14;23.80;99.90
47168;DHT22;32931;47.778;17.806;2023-06-22T04:59:41;23.80;99.90
47168;DHT22;32931;47.778;17.806;2023-06-22T05:02:08;23.90;99.90
47168;DHT22;32931;47.778;17.806;2023-06-22T05:04:35;23.90;99.90
47168;DHT22;32931;47.778;17.806;2023-06-22T05:07:06;23.90;99.90
47168;DHT22;32931;47.778;17.806;2023-06-22T05:09:33;24.00;99.90
47168;DHT22;32931;47.778;17.806;2023-06-22T05:11:59;24.10;99.90
47168;DHT22;32931;47.778;17.806;2023-06-22T05:14:29;24.10;99.90
47168;DHT22;32931;47.778;17.806;2023-06-22T05:16:55;24.20;99.90
47168;DHT22;32931;47.778;17.806;2023-06-22T05:19:25;24.30;99.90
47168;DHT22;32931;47.778;17.806;2023-06-22T05:21:57;24.40;99.90
47168;DHT22;32931;47.778;17.806;2023-06-22T05:24:24;24.40;99.80
47168;DHT22;32931;47.778;17.806;2023-06-22T05:26:50;24.50;99.60
47168;DHT22;32931;47.778;17.806;2023-06-22T05:29:17;24.50;99.60
47168;DHT22;32931;47.778;17.806;2023-06-22T05:31:43;24.60;99.80
47168;DHT22;32931;47.778;17.806;2023-06-22T05:34:09;24.70;99.80
47168;DHT22;32931;47.778;17.806;2023-06-22T05:36:35;24.70;99.60
47168;DHT22;32931;47.778;17.806;2023-06-22T05:39:11;24.80;99.60
47168;DHT22;32931;47.778;17.806;2023-06-22T05:41:39;24.90;99.10
47168;DHT22;32931;47.778;17.806;2023-06-22T05:44:05;25.00;99.00
47168;DHT22;32931;47.778;17.806;2023-06-22T05:46:32;25.00;98.90
47168;DHT22;32931;47.778;17.806;2023-06-22T05:48:58;25.00;98.70
47168;DHT22;32931;47.778;17.806;2023-06-22T05:51:24;25.10;98.60
47168;DHT22;32931;47.778;17.806;2023-06-22T05:53:51;25.20;99.00
47168;DHT22;32931;47.778;17.806;2023-06-22T05:56:17;25.20;98.70
47168;DHT22;32931;47.778;17.806;2023-06-22T05:58:43;25.20;98.40
47168;DHT22;32931;47.778;17.806;2023-06-22T06:01:09;25.30;98.40
47168;DHT22;32931;47.778;17.806;2023-06-22T06:03:36;25.30;98.60
47168;DHT22;32931;47.778;17.806;2023-06-22T06:06:09;25.40;98.60
47168;DHT22;32931;47.778;17.806;2023-06-22T06:08:38;25.40;98.40
47168;DHT22;32931;47.778;17.806;2023-06-22T06:11:04;25.50;98.50
47168;DHT22;32931;47.778;17.806;2023-06-22T06:13:30;25.50;98.50
47168;DHT22;32931;47.778;17.806;2023-06-22T06:15:57;25.60;98.40
47168;DHT22;32931;47.778;17.806;2023-06-22T06:18:23;25.70;98.30
47168;DHT22;32931;47.778;17.806;2023-06-22T06:20:49;25.80;98.10
47168;DHT22;32931;47.778;17.806;2023-06-22T06:23:15;25.80;97.80
47168;DHT22;32931;47.778;17.806;2023-06-22T06:25:41;25.90;97.80
47168;DHT22;32931;47.778;17.806;2023-06-22T06:28:08;25.90;97.60
47168;DHT22;32931;47.778;17.806;2023-06-22T06:30:34;26.00;97.60
47168;DHT22;32931;47.778;17.806;2023-06-22T06:33:03;26.00;97.60
47168;DHT22;32931;47.778;17.806;2023-06-22T06:35:34;26.10;97.60
47168;DHT22;32931;47.778;17.806;2023-06-22T06:38:01;26.10;97.50
47168;DHT22;32931;47.778;17.806;2023-06-22T06:40:28;26.20;97.40
47168;DHT22;32931;47.778;17.806;2023-06-22T06:42:54;26.20;97.40
47168;DHT22;32931;47.778;17.806;2023-06-22T06:45:22;26.30;97.60
47168;DHT22;32931;47.778;17.806;2023-06-22T06:47:49;26.40;97.40
47168;DHT22;32931;47.778;17.806;2023-06-22T06:50:15;26.40;97.40
47168;DHT22;32931;47.778;17.806;2023-06-22T06:52:42;26.50;97.40
47168;DHT22;32931;47.778;17.806;2023-06-22T06:55:09;26.60;97.30
47168;DHT22;32931;47.778;17.806;2023-06-22T06:57:39;26.60;97.10
47168;DHT22;32931;47.778;17.806;2023-06-22T07:00:07;26.70;96.80
47168;DHT22;32931;47.778;17.806;2023-06-22T07:02:35;26.80;96.70
47168;DHT22;32931;47.778;17.806;2023-06-22T07:05:02;26.80;96.50
47168;DHT22;32931;47.778;17.806;2023-06-22T07:07:30;26.90;96.40
47168;DHT22;32931;47.778;17.806;2023-06-22T07:09:56;27.00;96.10
47168;DHT22;32931;47.778;17.806;2023-06-22T07:12:23;27.00;96.10
47168;DHT22;32931;47.778;17.806;2023-06-22T07:14:49;27.00;96.00
47168;DHT22;32931;47.778;17.806;2023-06-22T07:17:16;27.10;95.80
47168;DHT22;32931;47.778;17.806;2023-06-22T07:19:42;27.20;95.80
47168;DHT22;32931;47.778;17.806;2023-06-22T07:22:08;27.20;95.60
47168;DHT22;32931;47.778;17.806;2023-06-22T07:24:34;27.30;95.00
47168;DHT22;32931;47.778;17.806;2023-06-22T07:27:00;27.30;94.90
47168;DHT22;32931;47.778;17.806;2023-06-22T07:29:28;27.40;94.90
47168;DHT22;32931;47.778;17.806;2023-06-22T07:31:54;27.40;94.60
47168;DHT22;32931;47.778;17.806;2023-06-22T07:34:22;27.50;94.50
47168;DHT22;32931;47.778;17.806;2023-06-22T07:36:48;27.50;94.40
47168;DHT22;32931;47.778;17.806;2023-06-22T07:39:14;27.60;94.10
47168;DHT22;32931;47.778;17.806;2023-06-22T07:41:41;27.60;94.10
47168;DHT22;32931;47.778;17.806;2023-06-22T07:44:07;27.70;94.10
47168;DHT22;32931;47.778;17.806;2023-06-22T07:46:33;27.80;94.30
47168;DHT22;32931;47.778;17.806;2023-06-22T07:49:00;27.90;94.40
47168;DHT22;32931;47.778;17.806;2023-06-22T07:51:27;27.90;94.00
47168;DHT22;32931;47.778;17.806;2023-06-22T07:53:53;28.00;94.00
47168;DHT22;32931;47.778;17.806;2023-06-22T07:56:20;28.00;94.00
47168;DHT22;32931;47.778;17.806;2023-06-22T07:58:47;28.10;93.70
47168;DHT22;32931;47.778;17.806;2023-06-22T08:01:17;28.10;93.50
47168;DHT22;32931;47.778;17.806;2023-06-22T08:03:45;28.10;93.60
47168;DHT22;32931;47.778;17.806;2023-06-22T08:06:11;28.20;93.80
47168;DHT22;32931;47.778;17.806;2023-06-22T08:08:37;28.30;93.70
47168;DHT22;32931;47.778;17.806;2023-06-22T08:11:03;28.30;93.60
47168;DHT22;32931;47.778;17.806;2023-06-22T08:13:31;28.40;93.40
47168;DHT22;32931;47.778;17.806;2023-06-22T08:15:57;28.50;93.50
47168;DHT22;32931;47.778;17.806;2023-06-22T08:18:23;28.50;93.50
47168;DHT22;32931;47.778;17.806;2023-06-22T08:20:49;28.50;93.10
47168;DHT22;32931;47.778;17.806;2023-06-22T08:23:15;28.60;93.10
47168;DHT22;32931;47.778;17.806;2023-06-22T08:25:42;28.70;93.00
47168;DHT22;32931;47.778;17.806;2023-06-22T08:28:08;28.70;92.80
47168;DHT22;32931;47.778;17.806;2023-06-22T08:30:34;28.80;92.90
47168;DHT22;32931;47.778;17.806;2023-06-22T08:33:00;28.80;92.70
47168;DHT22;32931;47.778;17.806;2023-06-22T08:35:26;28.90;92.30
47168;DHT22;32931;47.778;17.806;2023-06-22T08:37:53;29.00;92.40
47168;DHT22;32931;47.778;17.806;2023-06-22T08:40:20;29.10;92.00
47168;DHT22;32931;47.778;17.806;2023-06-22T08:42:47;29.10;91.80
47168;DHT22;32931;47.778;17.806;2023-06-22T08:45:14;29.20;91.50
47168;DHT22;32931;47.778;17.806;2023-06-22T08:47:41;29.30;91.20
47168;DHT22;32931;47.778;17.806;2023-06-22T08:50:11;29.30;91.10
47168;DHT22;32931;47.778;17.806;2023-06-22T08:52:38;29.40;91.10
47168;DHT22;32931;47.778;17.806;2023-06-22T08:55:07;29.40;90.80
47168;DHT22;32931;47.778;17.806;2023-06-22T08:57:34;29.40;91.00
47168;DHT22;32931;47.778;17.806;2023-06-22T09:00:07;29.50;90.90
47168;DHT22;32931;47.778;17.806;2023-06-22T09:02:46;29.60;90.50
47168;DHT22;32931;47.778;17.806;2023-06-22T09:05:12;29.60;90.20
47168;DHT22;32931;47.778;17.806;2023-06-22T09:07:39;29.70;90.00
47168;DHT22;32931;47.778;17.806;2023-06-22T09:10:05;29.70;90.20
47168;DHT22;32931;47.778;17.806;2023-06-22T09:12:32;29.80;90.20
47168;DHT22;32931;47.778;17.806;2023-06-22T09:14:59;29.90;90.30
47168;DHT22;32931;47.778;17.806;2023-06-22T09:17:26;29.90;90.50
47168;DHT22;32931;47.778;17.806;2023-06-22T09:19:53;29.90;90.20
47168;DHT22;32931;47.778;17.806;2023-06-22T09:22:19;30.00;90.30
47168;DHT22;32931;47.778;17.806;2023-06-22T09:24:45;30.10;90.10
47168;DHT22;32931;47.778;17.806;2023-06-22T09:27:11;30.10;89.60
47168;DHT22;32931;47.778;17.806;2023-06-22T09:29:38;30.20;90.00
47168;DHT22;32931;47.778;17.806;2023-06-22T09:32:04;30.20;90.00
47168;DHT22;32931;47.778;17.806;2023-06-22T09:34:30;30.30;88.50
47168;DHT22;32931;47.778;17.806;2023-06-22T09:36:57;30.30;88.80
47168;DHT22;32931;47.778;17.806;2023-06-22T09:39:26;30.40;88.40
47168;DHT22;32931;47.778;17.806;2023-06-22T09:41:52;30.50;87.70
47168;DHT22;32931;47.778;17.806;2023-06-22T09:44:18;30.50;87.80
47168;DHT22;32931;47.778;17.806;2023-06-22T09:46:45;30.50;88.40
47168;DHT22;32931;47.778;17.806;2023-06-22T09:49:11;30.60;88.20
47168;DHT22;32931;47.778;17.806;2023-06-22T09:51:37;30.70;87.90
47168;DHT22;32931;47.778;17.806;2023-06-22T09:54:03;30.70;88.30
47168;DHT22;32931;47.778;17.806;2023-06-22T09:56:29;30.70;87.60
47168;DHT22;32931;47.778;17.806;2023-06-22T09:58:56;30.80;87.80
47168;DHT22;32931;47.778;17.806;2023-06-22T10:01:22;30.80;87.90
47168;DHT22;32931;47.778;17.806;2023-06-22T10:03:49;30.90;87.40
47168;DHT22;32931;47.778;17.806;2023-06-22T10:06:15;30.90;87.30
47168;DHT22;32931;47.778;17.806;2023-06-22T10:08:41;31.00;87.70
47168;DHT22;32931;47.778;17.806;2023-06-22T10:11:08;31.00;87.80
47168;DHT22;32931;47.778;17.806;2023-06-22T10:13:34;31.10;87.10
47168;DHT22;32931;47.778;17.806;2023-06-22T10:16:00;31.20;87.30
47168;DHT22;32931;47.778;17.806;2023-06-22T10:18:26;31.30;87.60
47168;DHT22;32931;47.778;17.806;2023-06-22T10:20:52;31.40;87.30
47168;DHT22;32931;47.778;17.806;2023-06-22T10:23:20;31.40;87.40
47168;DHT22;32931;47.778;17.806;2023-06-22T10:25:46;31.40;87.20
47168;DHT22;32931;47.778;17.806;2023-06-22T10:28:13;31.50;87.00
47168;DHT22;32931;47.778;17.806;2023-06-22T10:30:39;31.60;86.30
47168;DHT22;32931;47.778;17.806;2023-06-22T10:33:10;31.60;86.90
47168;DHT22;32931;47.778;17.806;2023-06-22T10:35:36;31.70;86.00
47168;DHT22;32931;47.778;17.806;2023-06-22T10:38:06;31.80;84.90
47168;DHT22;32931;47.778;17.806;2023-06-22T10:40:32;31.90;84.80
47168;DHT22;32931;47.778;17.806;2023-06-22T10:42:59;31.90;84.50
47168;DHT22;32931;47.778;17.806;2023-06-22T10:45:25;32.00;84.90
47168;DHT22;32931;47.778;17.806;2023-06-22T10:47:51;32.10;84.90
47168;DHT22;32931;47.778;17.806;2023-06-22T10:50:18;32.10;85.50
47168;DHT22;32931;47.778;17.806;2023-06-22T10:52:44;32.20;84.20
47168;DHT22;32931;47.778;17.806;2023-06-22T10:55:10;32.30;83.90
47168;DHT22;32931;47.778;17.806;2023-06-22T10:57:36;32.40;82.90
47168;DHT22;32931;47.778;17.806;2023-06-22T11:00:05;32.40;83.20
47168;DHT22;32931;47.778;17.806;2023-06-22T11:02:32;32.50;82.10
47168;DHT22;32931;47.778;17.806;2023-06-22T11:04:58;32.60;82.80
47168;DHT22;32931;47.778;17.806;2023-06-22T11:07:26;32.60;83.00
47168;DHT22;32931;47.778;17.806;2023-06-22T11:09:55;32.70;82.30
47168;DHT22;32931;47.778;17.806;2023-06-22T11:12:21;32.80;82.60
47168;DHT22;32931;47.778;17.806;2023-06-22T11:14:47;32.90;81.90
47168;DHT22;32931;47.778;17.806;2023-06-22T11:17:16;33.00;81.60
47168;DHT22;32931;47.778;17.806;2023-06-22T11:19:42;33.10;81.10
47168;DHT22;32931;47.778;17.806;2023-06-22T11:22:08;33.20;81.20
47168;DHT22;32931;47.778;17.806;2023-06-22T11:24:34;33.30;81.20
47168;DHT22;32931;47.778;17.806;2023-06-22T11:27:00;33.30;80.90
47168;DHT22;32931;47.778;17.806;2023-06-22T11:29:26;33.50;80.70
47168;DHT22;32931;47.778;17.806;2023-06-22T11:31:53;33.60;80.50
47168;DHT22;32931;47.778;17.806;2023-06-22T11:34:19;33.70;80.60
47168;DHT22;32931;47.778;17.806;2023-06-22T11:36:45;33.90;80.80
47168;DHT22;32931;47.778;17.806;2023-06-22T11:39:11;34.00;80.40
47168;DHT22;32931;47.778;17.806;2023-06-22T11:41:40;34.20;80.00
47168;DHT22;32931;47.778;17.806;2023-06-22T11:44:06;34.30;79.60
47168;DHT22;32931;47.778;17.806;2023-06-22T11:46:32;34.50;80.40
47168;DHT22;32931;47.778;17.806;2023-06-22T11:48:59;34.60;79.00
47168;DHT22;32931;47.778;17.806;2023-06-22T11:51:25;34.70;79.30
47168;DHT22;32931;47.778;17.806;2023-06-22T11:53:51;34.80;78.50
47168;DHT22;32931;47.778;17.806;2023-06-22T11:56:17;34.80;77.80
47168;DHT22;32931;47.778;17.806;2023-06-22T11:58:43;35.00;78.30
47168;DHT22;32931;47.778;17.806;2023-06-22T12:01:09;35.00;77.90
47168;DHT22;32931;47.778;17.806;2023-06-22T12:03:36;35.20;78.30
47168;DHT22;32931;47.778;17.806;2023-06-22T12:06:02;35.30;78.50
47168;DHT22;32931;47.778;17.806;2023-06-22T12:08:28;35.50;77.50
47168;DHT22;32931;47.778;17.806;2023-06-22T12:10:54;35.60;77.10
47168;DHT22;32931;47.778;17.806;2023-06-22T12:13:20;35.80;77.60
47168;DHT22;32931;47.778;17.806;2023-06-22T12:15:47;35.90;77.30
47168;DHT22;32931;47.778;17.806;2023-06-22T12:18:13;36.00;75.50
47168;DHT22;32931;47.778;17.806;2023-06-22T12:20:42;36.10;75.10
47168;DHT22;32931;47.778;17.806;2023-06-22T12:23:08;36.20;74.50
47168;DHT22;32931;47.778;17.806;2023-06-22T12:25:35;36.30;74.30
47168;DHT22;32931;47.778;17.806;2023-06-22T12:28:01;36.30;74.70
47168;DHT22;32931;47.778;17.806;2023-06-22T12:30:27;36.40;74.60
47168;DHT22;32931;47.778;17.806;2023-06-22T12:32:53;36.50;73.40
47168;DHT22;32931;47.778;17.806;2023-06-22T12:35:19;36.70;75.20
47168;DHT22;32931;47.778;17.806;2023-06-22T12:37:46;36.90;74.00
47168;DHT22;32931;47.778;17.806;2023-06-22T12:40:12;37.00;74.00
47168;DHT22;32931;47.778;17.806;2023-06-22T12:42:38;37.00;72.20
47168;DHT22;32931;47.778;17.806;2023-06-22T12:45:05;37.10;71.20
47168;DHT22;32931;47.778;17.806;2023-06-22T12:47:31;37.20;71.30
47168;DHT22;32931;47.778;17.806;2023-06-22T12:49:57;37.30;71.60
47168;DHT22;32931;47.778;17.806;2023-06-22T12:52:24;37.30;71.60
47168;DHT22;32931;47.778;17.806;2023-06-22T12:54:50;37.50;71.40
47168;DHT22;32931;47.778;17.806;2023-06-22T12:57:16;37.60;71.30
47168;DHT22;32931;47.778;17.806;2023-06-22T12:59:43;37.70;71.00
47168;DHT22;32931;47.778;17.806;2023-06-22T13:02:09;37.80;70.80
47168;DHT22;32931;47.778;17.806;2023-06-22T13:04:35;38.10;71.60
47168;DHT22;32931;47.778;17.806;2023-06-22T13:07:02;38.10;70.90
47168;DHT22;32931;47.778;17.806;2023-06-22T13:09:28;38.30;71.20
47168;DHT22;32931;47.778;17.806;2023-06-22T13:11:54;38.40;70.00
47168;DHT22;32931;47.778;17.806;2023-06-22T13:14:20;38.50;68.80
47168;DHT22;32931;47.778;17.806;2023-06-22T13:16:46;38.60;69.00
47168;DHT22;32931;47.778;17.806;2023-06-22T13:19:12;38.70;67.70
47168;DHT22;32931;47.778;17.806;2023-06-22T13:21:39;38.90;66.70
47168;DHT22;32931;47.778;17.806;2023-06-22T13:24:06;38.90;67.90
47168;DHT22;32931;47.778;17.806;2023-06-22T13:26:32;39.10;67.20
47168;DHT22;32931;47.778;17.806;2023-06-22T13:28:59;39.30;67.60
47168;DHT22;32931;47.778;17.806;2023-06-22T13:31:25;39.50;68.40
47168;DHT22;32931;47.778;17.806;2023-06-22T13:33:51;39.60;66.80
47168;DHT22;32931;47.778;17.806;2023-06-22T13:36:18;39.80;65.80
47168;DHT22;32931;47.778;17.806;2023-06-22T13:38:45;39.90;65.20
47168;DHT22;32931;47.778;17.806;2023-06-22T13:41:11;40.10;65.50
47168;DHT22;32931;47.778;17.806;2023-06-22T13:43:37;40.20;65.30
47168;DHT22;32931;47.778;17.806;2023-06-22T13:46:04;40.40;65.10
47168;DHT22;32931;47.778;17.806;2023-06-22T13:48:30;40.70;65.10
47168;DHT22;32931;47.778;17.806;2023-06-22T13:50:56;40.90;64.70
47168;DHT22;32931;47.778;17.806;2023-06-22T13:53:24;41.10;64.90
47168;DHT22;32931;47.778;17.806;2023-06-22T13:55:51;41.30;63.20
47168;DHT22;32931;47.778;17.806;2023-06-22T13:58:17;41.50;63.20
47168;DHT22;32931;47.778;17.806;2023-06-22T14:00:45;41.70;62.60
47168;DHT22;32931;47.778;17.806;2023-06-22T14:03:11;41.80;62.50
47168;DHT22;32931;47.778;17.806;2023-06-22T14:05:42;41.90;60.90
47168;DHT22;32931;47.778;17.806;2023-06-22T14:08:08;42.00;60.80
47168;DHT22;32931;47.778;17.806;2023-06-22T14:10:35;42.00;60.40
47168;DHT22;32931;47.778;17.806;2023-06-22T14:13:01;41.90;59.90
47168;DHT22;32931;47.778;17.806;2023-06-22T14:15:27;41.70;60.90
47168;DHT22;32931;47.778;17.806;2023-06-22T14:17:53;41.60;60.80
47168;DHT22;32931;47.778;17.806;2023-06-22T14:20:19;41.40;60.50
47168;DHT22;32931;47.778;17.806;2023-06-22T14:22:46;41.30;60.50
47168;DHT22;32931;47.778;17.806;2023-06-22T14:25:12;41.20;61.80
47168;DHT22;32931;47.778;17.806;2023-06-22T14:27:38;41.10;61.60
47168;DHT22;32931;47.778;17.806;2023-06-22T14:30:04;41.00;62.60
47168;DHT22;32931;47.778;17.806;2023-06-22T14:32:31;40.80;62.40
47168;DHT22;32931;47.778;17.806;2023-06-22T14:34:57;40.70;62.90
47168;DHT22;32931;47.778;17.806;2023-06-22T14:37:23;40.70;63.30
47168;DHT22;32931;47.778;17.806;2023-06-22T14:39:49;40.60;63.10
47168;DHT22;32931;47.778;17.806;2023-06-22T14:42:18;40.40;63.30
47168;DHT22;32931;47.778;17.806;2023-06-22T14:44:44;40.30;63.90
47168;DHT22;32931;47.778;17.806;2023-06-22T14:47:11;40.20;63.60
47168;DHT22;32931;47.778;17.806;2023-06-22T14:49:37;40.10;63.60
47168;DHT22;32931;47.778;17.806;2023-06-22T14:52:03;40.00;64.20
47168;DHT22;32931;47.778;17.806;2023-06-22T14:54:30;40.00;65.70
47168;DHT22;32931;47.778;17.806;2023-06-22T14:56:56;40.10;64.80
47168;DHT22;32931;47.778;17.806;2023-06-22T14:59:22;40.20;64.60
47168;DHT22;32931;47.778;17.806;2023-06-22T15:01:48;40.20;64.40
47168;DHT22;32931;47.778;17.806;2023-06-22T15:04:15;40.40;64.40
47168;DHT22;32931;47.778;17.806;2023-06-22T15:06:41;40.50;63.50
47168;DHT22;32931;47.778;17.806;2023-06-22T15:09:08;40.60;63.80
47168;DHT22;32931;47.778;17.806;2023-06-22T15:11:34;40.70;63.80
47168;DHT22;32931;47.778;17.806;2023-06-22T15:14:00;40.70;64.00
47168;DHT22;32931;47.778;17.806;2023-06-22T15:16:26;40.70;64.30
47168;DHT22;32931;47.778;17.806;2023-06-22T15:18:52;40.70;63.30
47168;DHT22;32931;47.778;17.806;2023-06-22T15:21:19;40.70;63.10